Time,TemperatureF,DewpointF,PressureIn,WindDirection,WindDirectionDegrees,WindSpeedMPH,WindSpeedGustMPH,Humidity,HourlyPrecipIn,Conditions,Clouds,dailyrainin,SoftwareType,DateUTC
2014-01-01 00:00:00,26.4,14.0,25.63,WNW,292,4.0,7.0,56,0.00,,,0.00,Rainwise IP-100,2014-01-01 07:00:00,
2014-01-01 00:05:00,25.7,14.0,25.63,NW,315,4.9,7.0,55,0.00,,,0.00,Rainwise IP-100,2014-01-01 07:05:00,
2014-01-01 00:10:00,25.3,14.0,25.63,NW,315,4.0,6.0,56,0.00,,,0.00,Rainwise IP-100,2014-01-01 07:10:00,
2014-01-01 00:15:00,24.8,14.0,25.63,WNW,292,6.3,8.0,56,0.00,,,0.00,Rainwise IP-100,2014-01-01 07:15:00,
2014-01-01 00:20:00,24.0,11.0,25.63,WNW,292,4.2,10.0,57,0.00,,,0.00,Rainwise IP-100,2014-01-01 07:20:00,
2014-01-01 00:22:00,24.0,11.0,25.63,West,270,4.0,10.0,57,0.00,,,0.00,Rainwise IP-100,2014-01-01 07:22:00,
2014-01-01 00:27:00,24.3,14.0,25.62,West,270,4.4,8.0,58,0.00,,,0.00,Rainwise IP-100,2014-01-01 07:27:00,
2014-01-01 00:32:00,24.7,14.0,25.61,West,270,5.4,8.0,58,0.00,,,0.00,Rainwise IP-100,2014-01-01 07:32:00,
2014-01-01 00:37:00,25.7,14.0,25.61,West,270,4.0,7.0,58,0.00,,,0.00,Rainwise IP-100,2014-01-01 07:37:00,
2014-01-01 00:42:00,26.8,16.0,25.61,West,270,4.0,7.0,57,0.00,,,0.00,Rainwise IP-100,2014-01-01 07:42:00,
2014-01-01 00:47:00,26.5,14.0,25.61,WNW,292,6.8,12.0,56,0.00,,,0.00,Rainwise IP-100,2014-01-01 07:47:00,
2014-01-01 00:52:00,25.5,14.0,25.61,WNW,292,6.1,11.0,56,0.00,,,0.00,Rainwise IP-100,2014-01-01 07:52:00,
2014-01-01 00:57:00,24.4,11.0,25.61,NW,315,6.8,8.0,57,0.00,,,0.00,Rainwise IP-100,2014-01-01 07:57:00,
2014-01-01 01:00:00,24.1,14.0,25.61,NW,315,4.4,8.0,58,0.00,,,0.00,Rainwise IP-100,2014-01-01 08:00:00,
2014-01-01 01:05:00,24.0,14.0,25.62,WNW,292,7.0,7.0,59,0.00,,,0.00,Rainwise IP-100,2014-01-01 08:05:00,
2014-01-01 01:10:00,24.2,14.0,25.61,WNW,292,4.7,8.0,59,0.00,,,0.00,Rainwise IP-100,2014-01-01 08:10:00,
2014-01-01 01:15:00,24.2,14.0,25.61,WNW,292,5.1,6.0,59,0.00,,,0.00,Rainwise IP-100,2014-01-01 08:15:00,
2014-01-01 01:20:00,24.2,14.0,25.61,WNW,292,5.1,6.0,60,0.00,,,0.00,Rainwise IP-100,2014-01-01 08:20:00,
2014-01-01 01:25:00,25.0,14.0,25.61,WNW,292,4.7,7.0,60,0.00,,,0.00,Rainwise IP-100,2014-01-01 08:25:00,
2014-01-01 01:30:00,24.8,14.0,25.61,WNW,292,6.5,7.0,59,0.00,,,0.00,Rainwise IP-100,2014-01-01 08:30:00,
2014-01-01 01:35:00,24.3,14.0,25.61,WNW,292,5.6,7.0,60,0.00,,,0.00,Rainwise IP-100,2014-01-01 08:35:00,
2014-01-01 01:40:00,24.6,14.0,25.61,WNW,292,7.2,8.0,60,0.00,,,0.00,Rainwise IP-100,2014-01-01 08:40:00,
2014-01-01 01:45:00,24.5,14.0,25.61,WNW,292,6.5,9.0,60,0.00,,,0.00,Rainwise IP-100,2014-01-01 08:45:00,
2014-01-01 01:50:00,24.6,14.0,25.61,WNW,292,8.4,9.0,60,0.00,,,0.00,Rainwise IP-100,2014-01-01 08:50:00,
2014-01-01 01:55:00,24.9,14.0,25.61,WNW,292,7.0,13.0,60,0.00,,,0.00,Rainwise IP-100,2014-01-01 08:55:00,
2014-01-01 02:00:00,25.2,14.0,25.61,NW,315,6.1,11.0,60,0.00,,,0.00,Rainwise IP-100,2014-01-01 09:00:00,
2014-01-01 02:05:00,25.6,14.0,25.61,NNW,337,5.8,8.0,59,0.00,,,0.00,Rainwise IP-100,2014-01-01 09:05:00,
2014-01-01 02:10:00,26.1,14.0,25.61,WNW,292,8.9,8.9,59,0.00,,,0.00,Rainwise IP-100,2014-01-01 09:10:00,
2014-01-01 02:15:00,26.5,16.0,25.60,NW,315,6.1,8.0,59,0.00,,,0.00,Rainwise IP-100,2014-01-01 09:15:00,
2014-01-01 02:20:00,26.9,16.0,25.61,NW,315,6.5,11.0,59,0.00,,,0.00,Rainwise IP-100,2014-01-01 09:20:00,
2014-01-01 02:25:00,27.0,16.0,25.60,NW,315,2.3,7.0,59,0.00,,,0.00,Rainwise IP-100,2014-01-01 09:25:00,
2014-01-01 02:30:00,26.0,14.0,25.60,NE,45,4.0,5.0,58,0.00,,,0.00,Rainwise IP-100,2014-01-01 09:30:00,
2014-01-01 02:35:00,24.7,14.0,25.60,NE,45,2.6,5.0,59,0.00,,,0.00,Rainwise IP-100,2014-01-01 09:35:00,
2014-01-01 02:40:00,25.0,14.0,25.59,North,360,0.0,2.0,60,0.00,,,0.00,Rainwise IP-100,2014-01-01 09:40:00,
2014-01-01 02:45:00,25.7,16.0,25.60,NNW,337,5.4,5.4,61,0.00,,,0.00,Rainwise IP-100,2014-01-01 09:45:00,
2014-01-01 02:50:00,25.6,16.0,25.59,NW,315,4.4,7.0,61,0.00,,,0.00,Rainwise IP-100,2014-01-01 09:50:00,
2014-01-01 02:55:00,25.2,16.0,25.59,WNW,292,5.1,10.0,61,0.00,,,0.00,Rainwise IP-100,2014-01-01 09:55:00,
2014-01-01 03:00:00,24.3,14.0,25.59,WNW,292,6.5,8.0,61,0.00,,,0.00,Rainwise IP-100,2014-01-01 10:00:00,
2014-01-01 03:05:00,23.3,11.0,25.59,WNW,292,5.6,10.0,61,0.00,,,0.00,Rainwise IP-100,2014-01-01 10:05:00,
2014-01-01 03:10:00,22.7,14.0,25.58,NW,315,9.6,11.0,63,0.00,,,0.00,Rainwise IP-100,2014-01-01 10:10:00,
2014-01-01 03:15:00,22.7,14.0,25.58,NW,315,6.8,11.0,64,0.00,,,0.00,Rainwise IP-100,2014-01-01 10:15:00,
2014-01-01 03:20:00,23.0,14.0,25.58,NW,315,8.2,8.2,64,0.00,,,0.00,Rainwise IP-100,2014-01-01 10:20:00,
2014-01-01 03:25:00,23.7,14.0,25.58,NNW,337,3.5,14.0,64,0.00,,,0.00,Rainwise IP-100,2014-01-01 10:25:00,
2014-01-01 03:30:00,24.6,16.0,25.58,NNW,337,2.6,11.0,63,0.00,,,0.00,Rainwise IP-100,2014-01-01 10:30:00,
2014-01-01 03:35:00,25.1,16.0,25.58,NW,315,5.6,6.0,63,0.00,,,0.00,Rainwise IP-100,2014-01-01 10:35:00,
2014-01-01 03:40:00,25.7,16.0,25.58,NNW,337,2.8,6.0,63,0.00,,,0.00,Rainwise IP-100,2014-01-01 10:40:00,
2014-01-01 03:45:00,26.5,16.0,25.58,WNW,292,1.9,4.0,62,0.00,,,0.00,Rainwise IP-100,2014-01-01 10:45:00,
2014-01-01 03:50:00,27.0,16.0,25.58,WNW,292,2.3,3.0,62,0.00,,,0.00,Rainwise IP-100,2014-01-01 10:50:00,
2014-01-01 03:55:00,27.4,16.0,25.58,WNW,292,3.7,6.0,61,0.00,,,0.00,Rainwise IP-100,2014-01-01 10:55:00,
2014-01-01 04:00:00,27.9,16.0,25.58,WNW,292,3.3,5.0,60,0.00,,,0.00,Rainwise IP-100,2014-01-01 11:00:00,
2014-01-01 04:05:00,27.8,16.0,25.58,WNW,292,3.5,5.0,60,0.00,,,0.00,Rainwise IP-100,2014-01-01 11:05:00,
2014-01-01 04:10:00,27.4,16.0,25.58,WNW,292,5.8,5.8,60,0.00,,,0.00,Rainwise IP-100,2014-01-01 11:10:00,
2014-01-01 04:15:00,27.2,16.0,25.58,WNW,292,5.6,6.0,60,0.00,,,0.00,Rainwise IP-100,2014-01-01 11:15:00,
2014-01-01 04:20:00,27.3,16.0,25.57,WNW,292,4.9,8.0,60,0.00,,,0.00,Rainwise IP-100,2014-01-01 11:20:00,
2014-01-01 04:25:00,27.6,16.0,25.57,WNW,292,3.7,8.0,60,0.00,,,0.00,Rainwise IP-100,2014-01-01 11:25:00,
2014-01-01 04:30:00,27.8,16.0,25.57,WNW,292,3.7,5.0,60,0.00,,,0.00,Rainwise IP-100,2014-01-01 11:30:00,
2014-01-01 04:35:00,28.0,16.0,25.58,WNW,292,6.5,6.5,60,0.00,,,0.00,Rainwise IP-100,2014-01-01 11:35:00,
2014-01-01 04:40:00,27.9,16.0,25.58,WNW,292,5.4,7.0,60,0.00,,,0.00,Rainwise IP-100,2014-01-01 11:40:00,
2014-01-01 04:45:00,27.8,16.0,25.58,WNW,292,5.6,6.0,60,0.00,,,0.00,Rainwise IP-100,2014-01-01 11:45:00,
2014-01-01 04:50:00,28.2,16.0,25.58,WNW,292,4.9,7.0,60,0.00,,,0.00,Rainwise IP-100,2014-01-01 11:50:00,
2014-01-01 04:55:00,28.8,18.0,25.58,NW,315,5.4,6.0,60,0.00,,,0.00,Rainwise IP-100,2014-01-01 11:55:00,
2014-01-01 05:00:00,29.2,16.0,25.58,WNW,292,4.9,5.0,59,0.00,,,0.00,Rainwise IP-100,2014-01-01 12:00:00,
2014-01-01 05:05:00,29.5,18.0,25.58,WNW,292,6.5,7.0,59,0.00,,,0.00,Rainwise IP-100,2014-01-01 12:05:00,
2014-01-01 05:10:00,29.7,18.0,25.59,NE,45,8.4,14.0,59,0.00,,,0.00,Rainwise IP-100,2014-01-01 12:10:00,
2014-01-01 05:15:00,31.0,18.0,25.60,NNE,22,13.1,15.0,58,0.00,,,0.00,Rainwise IP-100,2014-01-01 12:15:00,
2014-01-01 05:20:00,32.9,18.0,25.60,North,360,11.4,16.0,55,0.00,,,0.00,Rainwise IP-100,2014-01-01 12:20:00,
2014-01-01 05:25:00,34.1,21.0,25.61,NNW,337,7.5,13.0,53,0.00,,,0.00,Rainwise IP-100,2014-01-01 12:25:00,
2014-01-01 05:30:00,35.0,18.0,25.61,North,360,8.6,17.0,52,0.00,,,0.00,Rainwise IP-100,2014-01-01 12:30:00,
2014-01-01 05:35:00,35.6,21.0,25.61,NNE,22,9.1,14.0,51,0.00,,,0.00,Rainwise IP-100,2014-01-01 12:35:00,
2014-01-01 05:40:00,35.6,21.0,25.61,NNE,22,9.1,13.0,50,0.00,,,0.00,Rainwise IP-100,2014-01-01 12:40:00,
2014-01-01 05:45:00,35.4,18.0,25.60,NNE,22,11.7,12.0,50,0.00,,,0.00,Rainwise IP-100,2014-01-01 12:45:00,
2014-01-01 05:50:00,34.9,18.0,25.61,NNW,337,13.1,14.0,51,0.00,,,0.00,Rainwise IP-100,2014-01-01 12:50:00,
2014-01-01 05:55:00,34.4,18.0,25.62,NNW,337,3.5,14.0,51,0.00,,,0.00,Rainwise IP-100,2014-01-01 12:55:00,
2014-01-01 06:00:00,34.0,18.0,25.63,NNW,337,6.5,14.0,51,0.00,,,0.00,Rainwise IP-100,2014-01-01 13:00:00,
2014-01-01 06:05:00,33.9,18.0,25.63,NNW,337,6.8,13.0,52,0.00,,,0.00,Rainwise IP-100,2014-01-01 13:05:00,
2014-01-01 06:10:00,34.0,18.0,25.64,NNW,337,4.0,14.0,52,0.00,,,0.00,Rainwise IP-100,2014-01-01 13:10:00,
2014-01-01 06:15:00,34.2,18.0,25.64,NNW,337,4.7,15.0,52,0.00,,,0.00,Rainwise IP-100,2014-01-01 13:15:00,
2014-01-01 06:20:00,34.3,18.0,25.64,North,360,15.4,18.0,52,0.00,,,0.00,Rainwise IP-100,2014-01-01 13:20:00,
2014-01-01 06:25:00,34.7,21.0,25.63,NNW,337,7.5,20.0,53,0.00,,,0.00,Rainwise IP-100,2014-01-01 13:25:00,
2014-01-01 06:30:00,35.2,21.0,25.63,NNE,22,14.7,19.0,53,0.00,,,0.00,Rainwise IP-100,2014-01-01 13:30:00,
2014-01-01 06:35:00,35.5,21.0,25.63,NNE,22,17.3,20.0,54,0.00,,,0.00,Rainwise IP-100,2014-01-01 13:35:00,
2014-01-01 06:40:00,35.5,21.0,25.64,NNE,22,18.4,22.0,54,0.00,,,0.00,Rainwise IP-100,2014-01-01 13:40:00,
2014-01-01 06:45:00,35.5,23.0,25.63,North,360,16.6,23.0,56,0.00,,,0.00,Rainwise IP-100,2014-01-01 13:45:00,
2014-01-01 06:50:00,35.6,23.0,25.63,NNE,22,21.2,24.0,57,0.00,,,0.00,Rainwise IP-100,2014-01-01 13:50:00,
2014-01-01 06:55:00,35.6,23.0,25.64,NNE,22,22.2,24.0,58,0.00,,,0.00,Rainwise IP-100,2014-01-01 13:55:00,
2014-01-01 07:00:00,35.5,23.0,25.66,NNW,337,12.8,24.0,59,0.00,,,0.00,Rainwise IP-100,2014-01-01 14:00:00,
2014-01-01 07:05:00,35.4,23.0,25.66,NNE,22,20.8,22.0,60,0.00,,,0.00,Rainwise IP-100,2014-01-01 14:05:00,
2014-01-01 07:10:00,35.4,23.0,25.65,NNE,22,23.6,25.0,62,0.00,,,0.00,Rainwise IP-100,2014-01-01 14:10:00,
2014-01-01 07:15:00,35.4,24.0,25.66,NNE,22,14.2,24.0,64,0.00,,,0.00,Rainwise IP-100,2014-01-01 14:15:00,
2014-01-01 07:20:00,35.5,26.0,25.66,NNE,22,19.1,21.0,66,0.00,,,0.00,Rainwise IP-100,2014-01-01 14:20:00,
2014-01-01 07:25:00,35.5,26.0,25.67,NNE,22,18.2,20.0,67,0.00,,,0.00,Rainwise IP-100,2014-01-01 14:25:00,
2014-01-01 07:30:00,35.5,26.0,25.67,NNE,22,12.1,21.0,68,0.00,,,0.00,Rainwise IP-100,2014-01-01 14:30:00,
2014-01-01 07:35:00,35.6,26.0,25.67,NNE,22,16.8,21.0,69,0.00,,,0.00,Rainwise IP-100,2014-01-01 14:35:00,
2014-01-01 07:40:00,35.5,26.0,25.68,NNE,22,15.2,18.0,69,0.00,,,0.00,Rainwise IP-100,2014-01-01 14:40:00,
2014-01-01 07:45:00,35.6,28.0,25.68,NNE,22,13.5,20.0,70,0.00,,,0.00,Rainwise IP-100,2014-01-01 14:45:00,
2014-01-01 07:50:00,36.0,28.0,25.68,North,360,10.3,23.0,72,0.00,,,0.00,Rainwise IP-100,2014-01-01 14:50:00,
2014-01-01 07:55:00,36.4,28.0,25.69,North,360,13.5,20.0,73,0.00,,,0.00,Rainwise IP-100,2014-01-01 14:55:00,
2014-01-01 08:00:00,36.5,29.0,25.70,North,360,13.3,23.0,74,0.00,,,0.00,Rainwise IP-100,2014-01-01 15:00:00,
2014-01-01 08:05:00,36.5,29.0,25.70,North,360,11.4,18.0,74,0.00,,,0.00,Rainwise IP-100,2014-01-01 15:05:00,
2014-01-01 08:10:00,36.7,31.0,25.70,ENE,67,2.3,18.0,75,0.00,,,0.00,Rainwise IP-100,2014-01-01 15:10:00,
2014-01-01 08:15:00,36.8,31.0,25.71,NNE,22,10.5,17.0,76,0.00,,,0.00,Rainwise IP-100,2014-01-01 15:15:00,
2014-01-01 08:20:00,36.9,31.0,25.71,North,360,10.3,20.0,76,0.00,,,0.00,Rainwise IP-100,2014-01-01 15:20:00,
2014-01-01 08:25:00,37.1,31.0,25.70,NNW,337,11.7,15.0,77,0.00,,,0.00,Rainwise IP-100,2014-01-01 15:25:00,
2014-01-01 08:30:00,37.2,31.0,25.70,North,360,16.1,17.0,77,0.00,,,0.00,Rainwise IP-100,2014-01-01 15:30:00,
2014-01-01 08:35:00,37.3,31.0,25.71,North,360,12.4,20.0,78,0.00,,,0.00,Rainwise IP-100,2014-01-01 15:35:00,
2014-01-01 08:40:00,37.3,31.0,25.71,North,360,14.5,19.0,78,0.00,,,0.00,Rainwise IP-100,2014-01-01 15:40:00,
2014-01-01 08:45:00,37.3,31.0,25.71,NNW,337,9.6,18.0,79,0.00,,,0.00,Rainwise IP-100,2014-01-01 15:45:00,
2014-01-01 08:50:00,37.3,31.0,25.71,NNW,337,14.0,18.0,79,0.00,,,0.00,Rainwise IP-100,2014-01-01 15:50:00,
2014-01-01 08:55:00,37.4,31.0,25.72,NNW,337,8.9,15.0,79,0.00,,,0.00,Rainwise IP-100,2014-01-01 15:55:00,
2014-01-01 09:00:00,37.8,32.0,25.72,NNW,337,10.7,19.0,79,0.00,,,0.00,Rainwise IP-100,2014-01-01 16:00:00,
2014-01-01 09:05:00,38.2,32.0,25.73,North,360,6.3,17.0,79,0.00,,,0.00,Rainwise IP-100,2014-01-01 16:05:00,
2014-01-01 09:10:00,38.6,33.0,25.74,NNW,337,14.5,19.0,78,0.00,,,0.00,Rainwise IP-100,2014-01-01 16:10:00,
2014-01-01 09:15:00,39.0,33.0,25.74,NNW,337,13.3,18.0,78,0.00,,,0.00,Rainwise IP-100,2014-01-01 16:15:00,
2014-01-01 09:20:00,39.2,32.0,25.74,NNW,337,8.2,19.0,77,0.00,,,0.00,Rainwise IP-100,2014-01-01 16:20:00,
2014-01-01 09:25:00,39.4,32.0,25.74,NNW,337,12.4,24.0,76,0.00,,,0.00,Rainwise IP-100,2014-01-01 16:25:00,
2014-01-01 09:30:00,39.5,33.0,25.74,NNW,337,12.6,27.0,76,0.00,,,0.00,Rainwise IP-100,2014-01-01 16:30:00,
2014-01-01 09:35:00,39.4,32.0,25.75,North,360,16.3,28.0,76,0.00,,,0.00,Rainwise IP-100,2014-01-01 16:35:00,
2014-01-01 09:40:00,39.2,32.0,25.76,NNW,337,16.8,31.0,77,0.00,,,0.00,Rainwise IP-100,2014-01-01 16:40:00,
2014-01-01 09:45:00,39.0,32.0,25.76,NNW,337,23.3,29.0,77,0.00,,,0.00,Rainwise IP-100,2014-01-01 16:45:00,
2014-01-01 09:50:00,38.1,32.0,25.75,North,360,21.5,37.0,78,0.00,,,0.00,Rainwise IP-100,2014-01-01 16:50:00,
2014-01-01 09:55:00,36.1,31.0,25.77,NNW,337,19.4,39.0,80,0.00,,,0.00,Rainwise IP-100,2014-01-01 16:55:00,
2014-01-01 10:00:00,34.5,29.0,25.78,NNW,337,13.5,34.0,82,0.00,,,0.00,Rainwise IP-100,2014-01-01 17:00:00,
2014-01-01 10:05:00,34.1,29.0,25.77,NNE,22,22.4,32.0,82,0.00,,,0.00,Rainwise IP-100,2014-01-01 17:05:00,
2014-01-01 10:10:00,34.2,29.0,25.78,NNE,22,22.4,29.0,81,0.00,,,0.00,Rainwise IP-100,2014-01-01 17:10:00,
2014-01-01 10:15:00,34.3,29.0,25.79,North,360,24.5,34.0,79,0.00,,,0.00,Rainwise IP-100,2014-01-01 17:15:00,
2014-01-01 10:20:00,34.0,29.0,25.79,NNW,337,19.8,35.0,78,0.00,,,0.00,Rainwise IP-100,2014-01-01 17:20:00,
2014-01-01 10:25:00,33.7,29.0,25.80,NNW,337,28.7,29.0,78,0.00,,,0.00,Rainwise IP-100,2014-01-01 17:25:00,
2014-01-01 10:30:00,33.5,29.0,25.79,NNE,22,24.0,32.0,78,0.00,,,0.00,Rainwise IP-100,2014-01-01 17:30:00,
2014-01-01 10:35:00,33.2,28.0,25.79,NNE,22,22.6,34.0,77,0.00,,,0.00,Rainwise IP-100,2014-01-01 17:35:00,
2014-01-01 10:40:00,32.9,26.0,25.79,NNE,22,13.1,32.0,76,0.00,,,0.00,Rainwise IP-100,2014-01-01 17:40:00,
2014-01-01 10:45:00,33.1,26.0,25.79,NNE,22,17.7,31.0,75,0.00,,,0.00,Rainwise IP-100,2014-01-01 17:45:00,
2014-01-01 10:50:00,33.4,26.0,25.80,NNW,337,22.9,30.0,75,0.00,,,0.00,Rainwise IP-100,2014-01-01 17:50:00,
2014-01-01 10:55:00,33.7,28.0,25.81,NNE,22,23.6,32.0,74,0.00,,,0.00,Rainwise IP-100,2014-01-01 17:55:00,
2014-01-01 11:00:00,33.7,28.0,25.80,North,360,19.1,31.0,74,0.00,,,0.00,Rainwise IP-100,2014-01-01 18:00:00,
2014-01-01 11:05:00,33.7,28.0,25.79,North,360,16.1,33.0,74,0.00,,,0.00,Rainwise IP-100,2014-01-01 18:05:00,
2014-01-01 11:10:00,33.7,28.0,25.80,NNE,22,17.7,31.0,74,0.00,,,0.00,Rainwise IP-100,2014-01-01 18:10:00,
2014-01-01 11:15:00,33.7,28.0,25.80,NNE,22,27.5,31.0,74,0.00,,,0.00,Rainwise IP-100,2014-01-01 18:15:00,
2014-01-01 11:20:00,33.6,28.0,25.80,NNW,337,15.9,30.0,74,0.00,,,0.00,Rainwise IP-100,2014-01-01 18:20:00,
2014-01-01 11:25:00,33.6,28.0,25.80,NNE,22,22.2,32.0,74,0.00,,,0.00,Rainwise IP-100,2014-01-01 18:25:00,
2014-01-01 11:30:00,33.6,28.0,25.79,NNW,337,12.6,29.0,75,0.00,,,0.00,Rainwise IP-100,2014-01-01 18:30:00,
2014-01-01 11:35:00,33.5,28.0,25.80,NNW,337,17.7,29.0,75,0.00,,,0.00,Rainwise IP-100,2014-01-01 18:35:00,
2014-01-01 11:40:00,33.5,28.0,25.81,North,360,8.6,30.0,75,0.00,,,0.00,Rainwise IP-100,2014-01-01 18:40:00,
2014-01-01 11:45:00,33.7,28.0,25.80,NE,45,29.8,32.0,74,0.00,,,0.00,Rainwise IP-100,2014-01-01 18:45:00,
2014-01-01 11:50:00,33.9,28.0,25.80,NNE,22,7.9,29.0,74,0.00,,,0.00,Rainwise IP-100,2014-01-01 18:50:00,
2014-01-01 11:55:00,34.0,28.0,25.79,North,360,18.2,29.0,73,0.00,,,0.00,Rainwise IP-100,2014-01-01 18:55:00,
2014-01-01 12:00:00,34.3,28.0,25.81,North,360,29.4,32.0,73,0.00,,,0.00,Rainwise IP-100,2014-01-01 19:00:00,
2014-01-01 12:05:00,34.6,26.0,25.80,WNW,292,5.4,32.0,72,0.00,,,0.00,Rainwise IP-100,2014-01-01 19:05:00,
2014-01-01 12:10:00,34.6,26.0,25.80,NNE,22,24.7,28.0,72,0.00,,,0.00,Rainwise IP-100,2014-01-01 19:10:00,
2014-01-01 12:15:00,34.8,26.0,25.81,NNW,337,20.3,31.0,72,0.00,,,0.00,Rainwise IP-100,2014-01-01 19:15:00,
2014-01-01 12:20:00,34.8,26.0,25.81,NNW,337,19.1,29.0,72,0.00,,,0.00,Rainwise IP-100,2014-01-01 19:20:00,
2014-01-01 12:25:00,35.2,26.0,25.81,NNE,22,26.1,28.0,72,0.00,,,0.00,Rainwise IP-100,2014-01-01 19:25:00,
2014-01-01 12:30:00,35.3,26.0,25.81,NNE,22,24.0,27.0,71,0.00,,,0.00,Rainwise IP-100,2014-01-01 19:30:00,
2014-01-01 12:35:00,35.2,26.0,25.80,NNE,22,17.3,28.0,71,0.00,,,0.00,Rainwise IP-100,2014-01-01 19:35:00,
2014-01-01 12:40:00,35.2,26.0,25.81,NNW,337,13.5,27.0,70,0.00,,,0.00,Rainwise IP-100,2014-01-01 19:40:00,
2014-01-01 12:45:00,35.2,26.0,25.81,NNE,22,13.5,30.0,69,0.00,,,0.00,Rainwise IP-100,2014-01-01 19:45:00,
2014-01-01 12:50:00,35.4,26.0,25.81,NNE,22,20.5,28.0,69,0.00,,,0.00,Rainwise IP-100,2014-01-01 19:50:00,
2014-01-01 12:55:00,35.6,26.0,25.81,NNE,22,25.4,26.0,68,0.00,,,0.00,Rainwise IP-100,2014-01-01 19:55:00,
2014-01-01 13:00:00,35.4,26.0,25.80,NNE,22,17.5,27.0,68,0.00,,,0.00,Rainwise IP-100,2014-01-01 20:00:00,
2014-01-01 13:05:00,35.3,26.0,25.80,NNE,22,18.2,23.0,68,0.00,,,0.00,Rainwise IP-100,2014-01-01 20:05:00,
2014-01-01 13:10:00,35.2,26.0,25.81,NE,45,15.6,21.0,68,0.00,,,0.00,Rainwise IP-100,2014-01-01 20:10:00,
2014-01-01 13:15:00,35.2,26.0,25.81,North,360,10.3,25.0,68,0.00,,,0.00,Rainwise IP-100,2014-01-01 20:15:00,
2014-01-01 13:20:00,35.9,26.0,25.81,North,360,12.6,26.0,67,0.00,,,0.00,Rainwise IP-100,2014-01-01 20:20:00,
2014-01-01 13:25:00,36.1,26.0,25.82,North,360,22.2,26.0,66,0.00,,,0.00,Rainwise IP-100,2014-01-01 20:25:00,
2014-01-01 13:30:00,36.2,26.0,25.82,NNW,337,6.5,26.0,66,0.00,,,0.00,Rainwise IP-100,2014-01-01 20:30:00,
2014-01-01 13:35:00,36.2,26.0,25.82,NNE,22,24.2,25.0,66,0.00,,,0.00,Rainwise IP-100,2014-01-01 20:35:00,
2014-01-01 13:40:00,36.2,26.0,25.82,NNW,337,18.2,24.0,65,0.00,,,0.00,Rainwise IP-100,2014-01-01 20:40:00,
2014-01-01 13:45:00,36.3,26.0,25.82,NNW,337,8.2,23.0,65,0.00,,,0.00,Rainwise IP-100,2014-01-01 20:45:00,
2014-01-01 13:50:00,36.3,26.0,25.82,NNE,22,19.6,24.0,66,0.00,,,0.00,Rainwise IP-100,2014-01-01 20:50:00,
2014-01-01 13:55:00,36.0,26.0,25.82,NNW,337,18.2,23.0,66,0.00,,,0.00,Rainwise IP-100,2014-01-01 20:55:00,
2014-01-01 14:00:00,35.7,26.0,25.83,NNE,22,18.7,27.0,67,0.00,,,0.00,Rainwise IP-100,2014-01-01 21:00:00,
2014-01-01 14:05:00,35.8,26.0,25.83,NNW,337,21.0,31.0,65,0.00,,,0.00,Rainwise IP-100,2014-01-01 21:05:00,
2014-01-01 14:10:00,35.7,26.0,25.82,North,360,19.4,26.0,65,0.00,,,0.00,Rainwise IP-100,2014-01-01 21:10:00,
2014-01-01 14:15:00,35.5,26.0,25.83,NNE,22,16.8,28.0,66,0.00,,,0.00,Rainwise IP-100,2014-01-01 21:15:00,
2014-01-01 14:20:00,35.4,24.0,25.84,NNW,337,11.4,27.0,64,0.00,,,0.00,Rainwise IP-100,2014-01-01 21:20:00,
2014-01-01 14:25:00,35.1,24.0,25.84,NNE,22,13.3,27.0,63,0.00,,,0.00,Rainwise IP-100,2014-01-01 21:25:00,
2014-01-01 14:30:00,34.4,24.0,25.84,North,360,12.8,27.0,66,0.00,,,0.00,Rainwise IP-100,2014-01-01 21:30:00,
2014-01-01 14:35:00,33.9,24.0,25.84,NNE,22,14.5,27.0,67,0.00,,,0.00,Rainwise IP-100,2014-01-01 21:35:00,
2014-01-01 14:40:00,33.5,24.0,25.84,NNE,22,15.4,23.0,67,0.00,,,0.00,Rainwise IP-100,2014-01-01 21:40:00,
2014-01-01 14:45:00,33.1,24.0,25.84,NNE,22,13.3,23.0,67,0.00,,,0.00,Rainwise IP-100,2014-01-01 21:45:00,
2014-01-01 14:50:00,32.8,24.0,25.85,NNE,22,9.1,28.0,69,0.00,,,0.00,Rainwise IP-100,2014-01-01 21:50:00,
2014-01-01 14:55:00,33.0,24.0,25.85,North,360,11.7,26.0,70,0.00,,,0.00,Rainwise IP-100,2014-01-01 21:55:00,
2014-01-01 15:00:00,33.0,24.0,25.87,North,360,9.3,29.0,71,0.00,,,0.00,Rainwise IP-100,2014-01-01 22:00:00,
2014-01-01 15:05:00,32.6,26.0,25.86,North,360,11.9,27.0,72,0.00,,,0.00,Rainwise IP-100,2014-01-01 22:05:00,
2014-01-01 15:10:00,32.4,24.0,25.86,North,360,23.6,26.0,72,0.00,,,0.00,Rainwise IP-100,2014-01-01 22:10:00,
2014-01-01 15:15:00,32.4,24.0,25.87,NNW,337,18.2,27.0,72,0.00,,,0.00,Rainwise IP-100,2014-01-01 22:15:00,
2014-01-01 15:20:00,32.2,24.0,25.86,NNW,337,16.3,26.0,72,0.00,,,0.00,Rainwise IP-100,2014-01-01 22:20:00,
2014-01-01 15:25:00,32.2,24.0,25.87,NNE,22,23.3,27.0,70,0.00,,,0.00,Rainwise IP-100,2014-01-01 22:25:00,
2014-01-01 15:30:00,32.1,24.0,25.87,NNE,22,16.3,28.0,70,0.00,,,0.00,Rainwise IP-100,2014-01-01 22:30:00,
2014-01-01 15:35:00,31.9,24.0,25.88,NNE,22,11.4,19.0,71,0.00,,,0.00,Rainwise IP-100,2014-01-01 22:35:00,
2014-01-01 15:40:00,31.5,24.0,25.88,NNE,22,13.5,23.0,73,0.00,,,0.00,Rainwise IP-100,2014-01-01 22:40:00,
2014-01-01 15:45:00,31.0,24.0,25.88,North,360,16.6,21.0,75,0.00,,,0.00,Rainwise IP-100,2014-01-01 22:45:00,
2014-01-01 15:50:00,30.8,24.0,25.88,North,360,17.3,19.0,77,0.00,,,0.00,Rainwise IP-100,2014-01-01 22:50:00,
2014-01-01 15:55:00,30.6,24.0,25.89,NNE,22,14.9,21.0,78,0.00,,,0.00,Rainwise IP-100,2014-01-01 22:55:00,
2014-01-01 16:00:00,30.2,24.0,25.89,NNE,22,18.2,21.0,79,0.00,,,0.00,Rainwise IP-100,2014-01-01 23:00:00,
2014-01-01 16:05:00,30.0,26.0,25.89,North,360,10.5,21.0,80,0.00,,,0.00,Rainwise IP-100,2014-01-01 23:05:00,
2014-01-01 16:10:00,29.9,26.0,25.90,NNE,22,11.9,21.0,81,0.00,,,0.00,Rainwise IP-100,2014-01-01 23:10:00,
2014-01-01 16:15:00,29.7,26.0,25.90,NNE,22,10.5,19.0,80,0.00,,,0.00,Rainwise IP-100,2014-01-01 23:15:00,
2014-01-01 16:20:00,29.5,24.0,25.91,NNE,22,15.4,17.0,79,0.00,,,0.00,Rainwise IP-100,2014-01-01 23:20:00,
2014-01-01 16:25:00,29.1,24.0,25.90,North,360,8.9,18.0,79,0.00,,,0.00,Rainwise IP-100,2014-01-01 23:25:00,
2014-01-01 16:30:00,28.6,24.0,25.91,NNE,22,5.6,15.0,80,0.00,,,0.00,Rainwise IP-100,2014-01-01 23:30:00,
2014-01-01 16:35:00,28.2,23.0,25.91,NNE,22,7.7,13.0,80,0.00,,,0.00,Rainwise IP-100,2014-01-01 23:35:00,
2014-01-01 16:40:00,28.0,23.0,25.91,NNE,22,13.1,14.0,80,0.00,,,0.00,Rainwise IP-100,2014-01-01 23:40:00,
2014-01-01 16:45:00,27.9,23.0,25.91,NNE,22,12.4,15.0,79,0.00,,,0.00,Rainwise IP-100,2014-01-01 23:45:00,
2014-01-01 16:50:00,27.7,23.0,25.92,NNE,22,10.0,19.0,79,0.00,,,0.00,Rainwise IP-100,2014-01-01 23:50:00,
2014-01-01 16:55:00,27.6,23.0,25.92,North,360,7.0,13.0,79,0.00,,,0.00,Rainwise IP-100,2014-01-01 23:55:00,
2014-01-01 17:00:00,27.7,23.0,25.92,NNE,22,6.5,15.0,79,0.00,,,0.00,Rainwise IP-100,2014-01-02 00:00:00,
2014-01-01 17:05:00,27.9,23.0,25.93,North,360,9.8,13.0,79,0.00,,,0.00,Rainwise IP-100,2014-01-02 00:05:00,
2014-01-01 17:10:00,28.1,23.0,25.93,NNE,22,10.5,14.0,79,0.00,,,0.00,Rainwise IP-100,2014-01-02 00:10:00,
2014-01-01 17:15:00,28.2,23.0,25.93,NNE,22,10.3,14.0,79,0.00,,,0.00,Rainwise IP-100,2014-01-02 00:15:00,
2014-01-01 17:20:00,28.2,23.0,25.93,North,360,18.0,23.0,79,0.00,,,0.00,Rainwise IP-100,2014-01-02 00:20:00,
2014-01-01 17:25:00,28.2,23.0,25.93,NE,45,15.4,21.0,79,0.00,,,0.00,Rainwise IP-100,2014-01-02 00:25:00,
2014-01-01 17:30:00,28.1,23.0,25.94,North,360,13.5,22.0,79,0.00,,,0.00,Rainwise IP-100,2014-01-02 00:30:00,
2014-01-01 17:35:00,28.0,23.0,25.94,NE,45,11.0,21.0,80,0.00,,,0.00,Rainwise IP-100,2014-01-02 00:35:00,
2014-01-01 17:40:00,28.0,23.0,25.95,NNE,22,14.0,19.0,80,0.00,,,0.00,Rainwise IP-100,2014-01-02 00:40:00,
2014-01-01 17:45:00,28.0,23.0,25.94,NNE,22,7.9,17.0,81,0.00,,,0.00,Rainwise IP-100,2014-01-02 00:45:00,
2014-01-01 17:50:00,27.9,23.0,25.94,NNE,22,6.5,15.0,81,0.00,,,0.00,Rainwise IP-100,2014-01-02 00:50:00,
2014-01-01 17:55:00,27.6,23.0,25.94,NNE,22,9.1,13.0,82,0.00,,,0.00,Rainwise IP-100,2014-01-02 00:55:00,
2014-01-01 18:00:00,27.1,23.0,25.94,NNE,22,9.3,13.0,82,0.00,,,0.00,Rainwise IP-100,2014-01-02 01:00:00,
2014-01-01 18:05:00,26.6,23.0,25.94,NNE,22,7.2,15.0,83,0.00,,,0.00,Rainwise IP-100,2014-01-02 01:05:00,
2014-01-01 18:10:00,26.2,23.0,25.94,NNE,22,10.0,13.0,83,0.00,,,0.00,Rainwise IP-100,2014-01-02 01:10:00,
2014-01-01 18:15:00,25.8,23.0,25.94,NNE,22,12.6,12.6,84,0.00,,,0.00,Rainwise IP-100,2014-01-02 01:15:00,
2014-01-01 18:20:00,25.4,23.0,25.94,North,360,11.7,14.0,85,0.00,,,0.00,Rainwise IP-100,2014-01-02 01:20:00,
2014-01-01 18:25:00,25.0,23.0,25.95,NNW,337,14.9,15.0,85,0.00,,,0.00,Rainwise IP-100,2014-01-02 01:25:00,
2014-01-01 18:30:00,24.8,23.0,25.95,NNW,337,6.1,14.0,86,0.00,,,0.00,Rainwise IP-100,2014-01-02 01:30:00,
2014-01-01 18:35:00,24.6,23.0,25.95,North,360,5.4,13.0,86,0.00,,,0.00,Rainwise IP-100,2014-01-02 01:35:00,
2014-01-01 18:40:00,24.1,21.0,25.95,North,360,7.7,8.0,86,0.00,,,0.00,Rainwise IP-100,2014-01-02 01:40:00,
2014-01-01 18:45:00,23.7,21.0,25.95,North,360,7.0,12.0,87,0.00,,,0.00,Rainwise IP-100,2014-01-02 01:45:00,
2014-01-01 18:50:00,23.4,18.0,25.95,North,360,4.9,15.0,87,0.00,,,0.00,Rainwise IP-100,2014-01-02 01:50:00,
2014-01-01 18:55:00,23.0,21.0,25.95,NNW,337,7.2,15.0,88,0.00,,,0.00,Rainwise IP-100,2014-01-02 01:55:00,
2014-01-01 19:00:00,22.8,21.0,25.96,North,360,14.2,18.0,88,0.00,,,0.00,Rainwise IP-100,2014-01-02 02:00:00,
2014-01-01 19:05:00,23.0,21.0,25.96,North,360,6.5,19.0,88,0.00,,,0.00,Rainwise IP-100,2014-01-02 02:05:00,
2014-01-01 19:10:00,23.3,21.0,25.96,North,360,8.4,17.0,89,0.00,,,0.00,Rainwise IP-100,2014-01-02 02:10:00,
2014-01-01 19:15:00,23.4,21.0,25.97,North,360,8.2,14.0,89,0.00,,,0.00,Rainwise IP-100,2014-01-02 02:15:00,
2014-01-01 19:20:00,23.4,21.0,25.97,North,360,3.5,10.0,89,0.00,,,0.00,Rainwise IP-100,2014-01-02 02:20:00,
2014-01-01 19:25:00,23.4,21.0,25.97,North,360,5.4,11.0,89,0.00,,,0.00,Rainwise IP-100,2014-01-02 02:25:00,
2014-01-01 19:30:00,23.4,21.0,25.97,North,360,3.7,10.0,90,0.00,,,0.00,Rainwise IP-100,2014-01-02 02:30:00,
2014-01-01 19:35:00,23.4,21.0,25.97,North,360,13.8,16.0,90,0.00,,,0.00,Rainwise IP-100,2014-01-02 02:35:00,
2014-01-01 19:40:00,23.4,21.0,25.97,NNW,337,11.4,17.0,90,0.00,,,0.00,Rainwise IP-100,2014-01-02 02:40:00,
2014-01-01 19:45:00,23.6,23.0,25.98,NNW,337,5.1,17.0,90,0.00,,,0.00,Rainwise IP-100,2014-01-02 02:45:00,
2014-01-01 19:50:00,23.8,23.0,25.98,NNW,337,4.4,11.0,90,0.00,,,0.00,Rainwise IP-100,2014-01-02 02:50:00,
2014-01-01 19:55:00,24.0,23.0,25.97,NNW,337,4.7,8.0,90,0.00,,,0.00,Rainwise IP-100,2014-01-02 02:55:00,
2014-01-01 20:00:00,24.1,23.0,25.98,NNW,337,2.6,4.0,90,0.00,,,0.00,Rainwise IP-100,2014-01-02 03:00:00,
2014-01-01 20:05:00,24.1,23.0,25.97,NNW,337,1.2,5.0,90,0.00,,,0.00,Rainwise IP-100,2014-01-02 03:05:00,
2014-01-01 20:10:00,24.0,23.0,25.98,NNW,337,1.4,4.0,90,0.00,,,0.00,Rainwise IP-100,2014-01-02 03:10:00,
2014-01-01 20:15:00,23.9,23.0,25.98,NNW,337,1.6,1.6,90,0.00,,,0.00,Rainwise IP-100,2014-01-02 03:15:00,
2014-01-01 20:20:00,23.9,23.0,25.98,NNW,337,0.0,3.0,90,0.00,,,0.00,Rainwise IP-100,2014-01-02 03:20:00,
2014-01-01 20:25:00,24.0,23.0,25.98,NNW,337,0.0,0.0,90,0.00,,,0.00,Rainwise IP-100,2014-01-02 03:25:00,
2014-01-01 20:30:00,24.0,23.0,25.98,NNW,337,0.0,0.0,90,0.00,,,0.00,Rainwise IP-100,2014-01-02 03:30:00,
2014-01-01 20:35:00,24.0,23.0,25.98,SSW,202,3.7,7.0,89,0.00,,,0.00,Rainwise IP-100,2014-01-02 03:35:00,
2014-01-01 20:40:00,23.6,23.0,25.98,SSW,202,4.0,8.0,89,0.00,,,0.00,Rainwise IP-100,2014-01-02 03:40:00,
2014-01-01 20:45:00,23.3,21.0,25.98,SSW,202,3.7,9.0,89,0.00,,,0.00,Rainwise IP-100,2014-01-02 03:45:00,
2014-01-01 20:50:00,23.4,21.0,25.99,SSW,202,5.8,9.0,89,0.00,,,0.00,Rainwise IP-100,2014-01-02 03:50:00,
2014-01-01 20:55:00,23.5,23.0,25.99,SW,225,8.6,10.0,89,0.00,,,0.00,Rainwise IP-100,2014-01-02 03:55:00,
2014-01-01 21:00:00,23.6,23.0,25.99,SW,225,2.3,9.0,89,0.00,,,0.00,Rainwise IP-100,2014-01-02 04:00:00,
2014-01-01 21:05:00,23.7,23.0,25.99,SW,225,2.8,6.0,89,0.00,,,0.00,Rainwise IP-100,2014-01-02 04:05:00,
2014-01-01 21:10:00,23.9,23.0,25.99,WSW,247,2.1,7.0,89,0.00,,,0.00,Rainwise IP-100,2014-01-02 04:10:00,
2014-01-01 21:15:00,24.0,23.0,25.99,WSW,247,0.0,5.0,89,0.00,,,0.00,Rainwise IP-100,2014-01-02 04:15:00,
2014-01-01 21:20:00,24.1,23.0,25.99,West,270,0.0,0.0,89,0.00,,,0.00,Rainwise IP-100,2014-01-02 04:20:00,
2014-01-01 21:25:00,24.2,23.0,26.00,WSW,247,2.3,3.0,89,0.00,,,0.00,Rainwise IP-100,2014-01-02 04:25:00,
2014-01-01 21:30:00,24.3,21.0,25.99,WSW,247,2.6,5.0,88,0.00,,,0.00,Rainwise IP-100,2014-01-02 04:30:00,
2014-01-01 21:35:00,24.4,21.0,25.99,WSW,247,0.0,4.0,88,0.00,,,0.00,Rainwise IP-100,2014-01-02 04:35:00,
2014-01-01 21:40:00,24.5,23.0,25.99,WSW,247,3.3,6.0,88,0.00,,,0.00,Rainwise IP-100,2014-01-02 04:40:00,
2014-01-01 21:45:00,24.6,23.0,26.00,WSW,247,0.0,5.0,88,0.00,,,0.00,Rainwise IP-100,2014-01-02 04:45:00,
2014-01-01 21:50:00,24.7,23.0,25.99,WSW,247,0.0,3.0,88,0.00,,,0.00,Rainwise IP-100,2014-01-02 04:50:00,
2014-01-01 21:55:00,24.8,23.0,25.99,WSW,247,0.0,0.0,88,0.00,,,0.00,Rainwise IP-100,2014-01-02 04:55:00,
2014-01-01 22:00:00,24.9,23.0,26.00,WSW,247,0.0,0.0,88,0.00,,,0.00,Rainwise IP-100,2014-01-02 05:00:00,
2014-01-01 22:01:00,25.0,23.0,25.99,WSW,247,0.0,0.0,88,0.00,,,0.00,Rainwise IP-100,2014-01-02 05:01:00,
2014-01-01 22:02:00,25.0,23.0,25.99,SSW,202,1.9,1.9,88,0.00,,,0.00,Rainwise IP-100,2014-01-02 05:02:00,
2014-01-01 22:07:00,25.0,23.0,26.00,SSW,202,2.6,6.0,87,0.00,,,0.00,Rainwise IP-100,2014-01-02 05:07:00,
2014-01-01 22:12:00,25.0,23.0,25.99,SSW,202,4.0,7.0,87,0.00,,,0.00,Rainwise IP-100,2014-01-02 05:12:00,
2014-01-01 22:17:00,25.2,23.0,25.99,SSW,202,2.3,5.0,87,0.00,,,0.00,Rainwise IP-100,2014-01-02 05:17:00,
2014-01-01 22:22:00,25.5,23.0,25.99,SSW,202,3.7,5.0,87,0.00,,,0.00,Rainwise IP-100,2014-01-02 05:22:00,
2014-01-01 22:27:00,25.7,23.0,25.99,SSW,202,4.7,5.0,86,0.00,,,0.00,Rainwise IP-100,2014-01-02 05:27:00,
2014-01-01 22:32:00,25.7,23.0,26.00,SW,225,4.0,7.0,86,0.00,,,0.00,Rainwise IP-100,2014-01-02 05:32:00,
2014-01-01 22:37:00,25.8,23.0,25.99,SSW,202,4.9,6.0,86,0.00,,,0.00,Rainwise IP-100,2014-01-02 05:37:00,
2014-01-01 22:42:00,26.1,23.0,25.99,SSW,202,4.0,5.0,85,0.00,,,0.00,Rainwise IP-100,2014-01-02 05:42:00,
2014-01-01 22:47:00,26.3,23.0,25.99,WSW,247,3.3,5.0,85,0.00,,,0.00,Rainwise IP-100,2014-01-02 05:47:00,
2014-01-01 22:52:00,26.5,24.0,25.99,SW,225,1.2,4.0,85,0.00,,,0.00,Rainwise IP-100,2014-01-02 05:52:00,
2014-01-01 22:57:00,26.7,24.0,25.99,SW,225,0.0,2.0,85,0.00,,,0.00,Rainwise IP-100,2014-01-02 05:57:00,
2014-01-01 23:02:00,26.9,24.0,25.99,WSW,247,0.0,2.0,84,0.00,,,0.00,Rainwise IP-100,2014-01-02 06:02:00,
2014-01-01 23:07:00,27.1,23.0,25.99,WNW,292,2.8,4.0,83,0.00,,,0.00,Rainwise IP-100,2014-01-02 06:07:00,
2014-01-01 23:12:00,27.5,23.0,25.99,West,270,1.2,6.0,83,0.00,,,0.00,Rainwise IP-100,2014-01-02 06:12:00,
2014-01-01 23:17:00,27.8,23.0,25.99,WSW,247,3.7,5.0,82,0.00,,,0.00,Rainwise IP-100,2014-01-02 06:17:00,
2014-01-01 23:22:00,27.8,23.0,25.99,WSW,247,4.0,5.0,81,0.00,,,0.00,Rainwise IP-100,2014-01-02 06:22:00,
2014-01-01 23:27:00,27.7,23.0,25.98,SSW,202,2.6,6.0,81,0.00,,,0.00,Rainwise IP-100,2014-01-02 06:27:00,
2014-01-01 23:32:00,27.3,23.0,25.98,SSW,202,1.6,5.0,81,0.00,,,0.00,Rainwise IP-100,2014-01-02 06:32:00,
2014-01-01 23:37:00,27.0,23.0,25.98,SSW,202,4.7,4.7,81,0.00,,,0.00,Rainwise IP-100,2014-01-02 06:37:00,
2014-01-01 23:42:00,27.1,23.0,25.97,WSW,247,5.1,6.0,82,0.00,,,0.00,Rainwise IP-100,2014-01-02 06:42:00,
2014-01-01 23:47:00,27.1,23.0,25.97,West,270,6.3,8.0,82,0.00,,,0.00,Rainwise IP-100,2014-01-02 06:47:00,
2014-01-01 23:52:00,26.9,23.0,25.97,WSW,247,4.7,10.0,82,0.00,,,0.00,Rainwise IP-100,2014-01-02 06:52:00,
2014-01-01 23:57:00,26.5,23.0,25.97,WSW,247,8.6,10.0,82,0.00,,,0.00,Rainwise IP-100,2014-01-02 06:57:00,